createdAt,value
2018-08-28T00:01:24.267Z,3.00
2018-08-28T00:03:52.949Z,2.90
2018-08-28T00:06:21.091Z,3.20
2018-08-28T00:08:49.514Z,2.97
2018-08-28T00:11:17.797Z,2.70
2018-08-28T00:13:45.942Z,2.40
2018-08-28T00:16:14.062Z,2.53
2018-08-28T00:18:42.198Z,3.10
2018-08-28T00:21:10.326Z,3.03
2018-08-28T00:23:38.677Z,2.90
2018-08-28T00:26:06.796Z,3.37
2018-08-28T00:28:34.910Z,3.30
2018-08-28T00:31:03.031Z,3.23
2018-08-28T00:33:31.142Z,3.20
2018-08-28T00:35:59.257Z,3.40
2018-08-28T00:38:27.372Z,3.00
2018-08-28T00:40:55.490Z,3.10
2018-08-28T00:43:23.603Z,2.97
2018-08-28T00:45:51.715Z,3.17
2018-08-28T00:48:20.067Z,3.20
2018-08-28T00:50:48.169Z,3.63
2018-08-28T00:53:16.286Z,3.73
2018-08-28T00:55:44.386Z,3.40
2018-08-28T00:58:12.511Z,3.90
2018-08-28T01:00:40.615Z,4.07
2018-08-28T01:03:08.726Z,3.43
2018-08-28T01:05:36.829Z,3.40
2018-08-28T01:08:04.945Z,3.80
2018-08-28T01:10:33.078Z,4.63
2018-08-28T01:13:01.272Z,3.93
2018-08-28T01:15:29.363Z,3.53
2018-08-28T01:17:57.484Z,4.23
2018-08-28T01:20:25.593Z,3.70
2018-08-28T01:22:53.709Z,4.10
2018-08-28T01:25:21.829Z,3.80
2018-08-28T01:27:49.957Z,4.10
2018-08-28T01:30:22.403Z,4.13
2018-08-28T01:32:50.523Z,4.17
2018-08-28T01:35:18.630Z,4.23
2018-08-28T01:37:46.765Z,4.00
2018-08-28T01:40:14.871Z,4.10
2018-08-28T01:42:42.991Z,4.20
2018-08-28T01:45:11.097Z,4.60
2018-08-28T01:47:39.206Z,4.17
2018-08-28T01:50:07.315Z,4.67
2018-08-28T01:52:35.451Z,4.10
2018-08-28T01:55:03.559Z,4.23
2018-08-28T01:57:31.665Z,3.90
2018-08-28T01:59:59.970Z,5.20
2018-08-28T02:02:28.185Z,4.83
2018-08-28T02:04:56.298Z,5.63
2018-08-28T02:07:24.418Z,4.57
2018-08-28T02:09:52.571Z,4.80
2018-08-28T02:12:20.872Z,4.30
2018-08-28T02:14:48.973Z,5.03
2018-08-28T02:17:17.089Z,4.80
2018-08-28T02:19:45.210Z,5.37
2018-08-28T02:22:13.473Z,4.90
2018-08-28T02:24:41.595Z,5.93
2018-08-28T02:27:09.718Z,5.13
2018-08-28T02:29:37.833Z,5.70
2018-08-28T02:32:05.966Z,5.47
2018-08-28T02:34:34.082Z,4.77
2018-08-28T02:37:02.204Z,4.70
2018-08-28T02:39:30.310Z,5.53
2018-08-28T02:41:58.432Z,6.03
2018-08-28T02:44:26.542Z,5.43
2018-08-28T02:46:54.715Z,5.90
2018-08-28T02:49:22.829Z,5.73
2018-08-28T02:51:50.958Z,6.50
2018-08-28T02:54:19.154Z,6.20
2018-08-28T02:56:47.280Z,6.70
2018-08-28T02:59:15.390Z,5.83
2018-08-28T03:01:43.514Z,5.57
2018-08-28T03:04:11.626Z,6.13
2018-08-28T03:06:39.738Z,6.47
2018-08-28T03:09:08.137Z,5.87
2018-08-28T03:11:36.286Z,6.83
2018-08-28T03:14:04.386Z,5.97
2018-08-28T03:16:32.506Z,6.63
2018-08-28T03:19:00.651Z,5.93
2018-08-28T03:21:28.777Z,6.57
2018-08-28T03:23:56.986Z,5.50
2018-08-28T03:26:25.099Z,6.43
2018-08-28T03:28:53.235Z,6.17
2018-08-28T03:31:21.345Z,7.30
2018-08-28T03:33:49.482Z,5.87
2018-08-28T03:36:17.585Z,6.23
2018-08-28T03:38:45.723Z,6.60
2018-08-28T03:41:13.863Z,7.00
2018-08-28T03:43:42.027Z,6.10
2018-08-28T03:46:10.139Z,7.53
2018-08-28T03:48:38.254Z,6.53
2018-08-28T03:51:07.061Z,7.00
2018-08-28T03:53:35.179Z,6.90
2018-08-28T03:56:03.430Z,7.03
2018-08-28T03:58:31.613Z,6.43
2018-08-28T04:00:59.714Z,6.30
2018-08-28T04:03:27.838Z,6.13
2018-08-28T04:05:55.954Z,6.60
2018-08-28T04:08:24.073Z,6.83
2018-08-28T04:10:52.182Z,6.47
2018-08-28T04:13:20.303Z,6.50
2018-08-28T04:15:48.418Z,6.13
2018-08-28T04:18:16.542Z,5.70
2018-08-28T04:20:44.654Z,6.27
2018-08-28T04:23:12.786Z,5.97
2018-08-28T04:25:40.911Z,5.97
2018-08-28T04:28:09.023Z,6.07
2018-08-28T04:30:37.375Z,6.07
2018-08-28T04:33:05.681Z,7.30
2018-08-28T04:35:33.810Z,5.90
2018-08-28T04:38:01.932Z,6.17
2018-08-28T04:40:30.185Z,5.87
2018-08-28T04:42:58.306Z,6.33
2018-08-28T04:45:26.422Z,5.83
2018-08-28T04:47:54.538Z,6.57
2018-08-28T04:50:22.799Z,7.10
2018-08-28T04:52:50.906Z,5.93
2018-08-28T04:55:19.032Z,6.20
2018-08-28T04:57:47.170Z,6.70
2018-08-28T05:00:15.308Z,6.50
2018-08-28T05:02:43.399Z,7.37
2018-08-28T05:05:11.518Z,6.50
2018-08-28T05:07:39.746Z,6.80
2018-08-28T05:10:08.028Z,6.67
2018-08-28T05:12:36.123Z,6.70
2018-08-28T05:15:04.255Z,6.63
2018-08-28T05:17:32.353Z,5.80
2018-08-28T05:20:00.480Z,8.10
2018-08-28T05:22:28.653Z,6.30
2018-08-28T05:24:56.761Z,6.10
2018-08-28T05:27:24.878Z,6.33
2018-08-28T05:29:53.002Z,6.20
2018-08-28T05:32:21.122Z,6.73
2018-08-28T05:34:49.242Z,6.47
2018-08-28T05:37:17.449Z,6.67
2018-08-28T05:39:45.630Z,6.03
2018-08-28T05:42:13.742Z,6.07
2018-08-28T05:44:42.162Z,7.30
2018-08-28T05:47:10.279Z,6.20
2018-08-28T05:49:38.515Z,6.67
2018-08-28T05:52:06.614Z,7.17
2018-08-28T05:54:34.765Z,6.73
2018-08-28T05:57:02.941Z,7.10
2018-08-28T05:59:31.058Z,7.47
2018-08-28T06:01:59.166Z,7.50
2018-08-28T06:04:27.322Z,6.80
2018-08-28T06:06:55.443Z,8.90
2018-08-28T06:09:23.557Z,7.13
2018-08-28T06:11:51.667Z,6.50
2018-08-28T06:14:19.798Z,7.73
2018-08-28T06:16:48.340Z,7.90
2018-08-28T06:19:16.505Z,8.37
2018-08-28T06:21:44.634Z,7.13
2018-08-28T06:24:12.750Z,8.10
2018-08-28T06:26:40.889Z,7.00
2018-08-28T06:29:09.307Z,7.03
2018-08-28T06:31:37.430Z,6.77
2018-08-28T06:34:05.562Z,8.23
2018-08-28T06:36:33.671Z,7.83
2018-08-28T06:39:01.809Z,6.70
2018-08-28T06:41:30.094Z,7.90
2018-08-28T06:43:58.267Z,7.53
2018-08-28T06:46:26.323Z,7.47
2018-08-28T06:48:54.743Z,8.10
2018-08-28T06:51:22.878Z,8.40
2018-08-28T06:53:51.021Z,7.50
2018-08-28T06:56:19.157Z,7.50
2018-08-28T06:58:47.266Z,6.90
2018-08-28T07:01:15.395Z,7.73
2018-08-28T07:03:43.658Z,6.90
2018-08-28T07:06:11.690Z,7.97
2018-08-28T07:08:39.801Z,6.57
2018-08-28T07:11:07.946Z,7.27
2018-08-28T07:13:36.082Z,7.90
2018-08-28T07:16:04.206Z,7.40
2018-08-28T07:18:32.372Z,7.83
2018-08-28T07:21:00.480Z,7.33
2018-08-28T07:23:28.627Z,8.33
2018-08-28T07:25:56.781Z,8.03
2018-08-28T07:28:24.891Z,7.67
2018-08-28T07:30:53.018Z,6.90
2018-08-28T07:33:21.147Z,8.70
2018-08-28T07:35:49.270Z,6.83
2018-08-28T07:38:17.658Z,6.50
2018-08-28T07:40:45.770Z,8.40
2018-08-28T07:43:13.883Z,7.23
2018-08-28T07:45:42.006Z,7.93
2018-08-28T07:48:10.127Z,6.70
2018-08-28T07:50:38.255Z,4.80
2018-08-28T07:53:06.395Z,7.60
2018-08-28T07:55:34.538Z,7.60
2018-08-28T07:58:02.646Z,8.00
2018-08-28T08:00:30.766Z,7.70
2018-08-28T08:02:58.866Z,7.80
2018-08-28T08:05:26.991Z,6.30
2018-08-28T08:07:55.188Z,6.33
2018-08-28T08:10:23.418Z,8.17
2018-08-28T08:12:51.498Z,7.97
2018-08-28T08:15:19.607Z,8.20
2018-08-28T08:17:47.740Z,8.23
2018-08-28T08:20:15.870Z,7.80
2018-08-28T08:22:43.995Z,5.60
2018-08-28T08:25:12.107Z,5.70
2018-08-28T08:27:40.336Z,7.43
2018-08-28T08:30:08.659Z,7.93
2018-08-28T08:32:36.791Z,7.00
2018-08-28T08:35:04.898Z,7.00
2018-08-28T08:37:33.027Z,7.60
2018-08-28T08:40:01.154Z,6.87
2018-08-28T08:42:29.261Z,7.33
2018-08-28T08:44:57.402Z,6.00
2018-08-28T08:47:25.542Z,7.80
2018-08-28T08:49:53.723Z,7.73
2018-08-28T08:52:21.870Z,6.90
2018-08-28T08:54:50.028Z,5.87
2018-08-28T08:57:18.159Z,4.93
2018-08-28T08:59:46.320Z,4.90
2018-08-28T09:02:14.449Z,5.40
2018-08-28T09:04:42.572Z,5.97
2018-08-28T09:07:10.706Z,5.50
2018-08-28T09:09:39.020Z,4.60
2018-08-28T09:12:07.182Z,5.07
2018-08-28T09:14:35.253Z,6.07
2018-08-28T09:17:03.402Z,4.87
2018-08-28T09:19:31.511Z,5.17
2018-08-28T09:21:59.627Z,7.83
2018-08-28T09:24:27.996Z,7.00
2018-08-28T09:26:56.114Z,5.17
2018-08-28T09:29:24.240Z,6.47
2018-08-28T09:31:52.356Z,5.47
2018-08-28T09:34:20.519Z,7.53
2018-08-28T09:36:48.638Z,7.50
2018-08-28T09:39:16.970Z,6.83
2018-08-28T09:41:45.107Z,5.90
2018-08-28T09:44:13.226Z,5.57
2018-08-28T09:46:41.495Z,5.63
2018-08-28T09:49:09.606Z,5.93
2018-08-28T09:51:37.738Z,6.63
2018-08-28T09:54:06.622Z,5.30
2018-08-28T09:56:34.804Z,5.20
2018-08-28T09:59:02.882Z,5.33
2018-08-28T10:01:36.610Z,7.00
2018-08-28T10:04:04.715Z,4.40
2018-08-28T10:06:32.838Z,4.53
2018-08-28T10:09:03.659Z,5.13
2018-08-28T10:11:31.762Z,3.90
2018-08-28T10:13:59.865Z,5.07
2018-08-28T10:16:27.970Z,11.20
2018-08-28T10:18:56.103Z,10.90
2018-08-28T10:21:24.227Z,15.27
2018-08-28T10:23:52.342Z,14.20
2018-08-28T10:26:20.487Z,11.07
2018-08-28T10:28:48.791Z,7.27
2018-08-28T10:31:16.898Z,6.30
2018-08-28T10:33:45.025Z,8.87
2018-08-28T10:36:13.164Z,4.67
2018-08-28T10:38:41.311Z,4.40
2018-08-28T10:41:09.424Z,3.70
2018-08-28T10:43:37.546Z,4.13
2018-08-28T10:46:06.082Z,6.00
2018-08-28T10:48:34.107Z,7.93
2018-08-28T10:51:02.239Z,5.13
2018-08-28T10:53:30.359Z,5.63
2018-08-28T10:55:58.486Z,5.43
2018-08-28T10:58:26.644Z,4.93
2018-08-28T11:00:54.767Z,4.77
2018-08-28T11:03:23.195Z,7.33
2018-08-28T11:05:51.453Z,5.20
2018-08-28T11:08:19.586Z,5.90
2018-08-28T11:10:47.710Z,7.30
2018-08-28T11:13:15.826Z,5.00
2018-08-28T11:15:43.945Z,5.47
2018-08-28T11:18:12.086Z,4.70
2018-08-28T11:20:40.245Z,7.40
2018-08-28T11:23:08.367Z,5.90
2018-08-28T11:25:36.494Z,4.60
2018-08-28T11:28:04.608Z,4.60
2018-08-28T11:30:32.727Z,4.17
2018-08-28T11:33:00.854Z,4.80
2018-08-28T11:35:28.970Z,4.03
2018-08-28T11:37:57.106Z,6.05
2018-08-28T11:40:25.202Z,5.50
2018-08-28T11:42:53.331Z,4.10
2018-08-28T11:45:21.447Z,4.97
2018-08-28T11:47:49.575Z,5.60
2018-08-28T11:50:17.675Z,5.13
2018-08-28T11:52:48.746Z,4.70
2018-08-28T11:55:16.858Z,5.20
2018-08-28T11:57:44.963Z,4.30
2018-08-28T12:00:14.027Z,5.10
2018-08-28T12:02:42.157Z,4.67
2018-08-28T12:05:10.349Z,4.60
2018-08-28T12:07:38.457Z,4.80
2018-08-28T12:10:07.499Z,4.90
2018-08-28T12:12:35.614Z,4.90
2018-08-28T12:15:03.737Z,4.90
2018-08-28T12:17:31.848Z,4.80
2018-08-28T12:19:59.957Z,5.00
2018-08-28T12:22:28.074Z,4.43
2018-08-28T12:24:56.190Z,4.10
2018-08-28T12:27:24.303Z,4.60
2018-08-28T12:29:52.424Z,4.73
2018-08-28T12:32:20.525Z,4.40
2018-08-28T12:34:48.633Z,4.40
2018-08-28T12:37:16.739Z,4.27
2018-08-28T12:39:44.834Z,4.60
2018-08-28T12:42:12.947Z,4.53
2018-08-28T12:44:41.059Z,4.47
2018-08-28T12:47:09.165Z,5.00
2018-08-28T12:49:37.270Z,4.40
2018-08-28T12:52:05.510Z,4.07
2018-08-28T12:54:33.627Z,4.63
2018-08-28T12:57:01.743Z,4.10
2018-08-28T12:59:29.868Z,4.20
2018-08-28T13:01:57.971Z,4.47
2018-08-28T13:04:26.658Z,4.70
2018-08-28T13:06:54.762Z,4.43
2018-08-28T13:09:22.911Z,4.73
2018-08-28T13:11:51.032Z,4.63
2018-08-28T13:14:19.384Z,5.50
2018-08-28T13:16:47.506Z,4.90
2018-08-28T13:19:15.614Z,5.30
2018-08-28T13:21:43.739Z,4.70
2018-08-28T13:24:12.228Z,5.07
2018-08-28T13:26:40.330Z,4.67
2018-08-28T13:29:08.459Z,5.00
2018-08-28T13:31:36.554Z,5.20
2018-08-28T13:34:04.671Z,5.73
2018-08-28T13:36:32.816Z,5.23
2018-08-28T13:39:00.965Z,4.43
2018-08-28T13:41:29.142Z,4.90
2018-08-28T13:43:57.445Z,4.97
2018-08-28T13:46:25.538Z,4.60
2018-08-28T13:48:53.649Z,5.60
2018-08-28T13:51:21.798Z,6.10
2018-08-28T13:53:50.016Z,5.40
2018-08-28T13:56:18.022Z,5.60
2018-08-28T13:58:46.209Z,4.67
2018-08-28T14:01:14.310Z,5.40
2018-08-28T14:03:42.414Z,5.20
2018-08-28T14:06:10.530Z,5.10
2018-08-28T14:08:38.621Z,5.47
2018-08-28T14:11:06.771Z,5.33
2018-08-28T14:13:34.879Z,5.90
2018-08-28T14:16:03.014Z,6.50
2018-08-28T14:18:31.118Z,6.50
2018-08-28T14:20:59.242Z,4.60
2018-08-28T14:23:27.392Z,5.70
2018-08-28T14:25:55.490Z,5.57
2018-08-28T14:28:23.627Z,5.67
2018-08-28T14:30:51.735Z,5.57
2018-08-28T14:33:19.841Z,6.40
2018-08-28T14:35:48.289Z,6.70
2018-08-28T14:38:16.310Z,4.77
2018-08-28T14:40:44.432Z,5.10
2018-08-28T14:43:12.562Z,5.70
2018-08-28T14:45:40.685Z,4.93
2018-08-28T14:48:08.795Z,5.00
2018-08-28T14:50:36.949Z,4.90
2018-08-28T14:53:05.062Z,5.23
2018-08-28T14:55:33.177Z,4.60
2018-08-28T14:58:01.293Z,4.90
2018-08-28T15:00:29.578Z,4.80
2018-08-28T15:02:57.674Z,5.20
2018-08-28T15:05:25.786Z,5.10
2018-08-28T15:07:53.999Z,4.20
2018-08-28T15:10:22.130Z,5.53
2018-08-28T15:12:50.289Z,5.47
2018-08-28T15:15:18.418Z,5.10
2018-08-28T15:17:46.539Z,5.63
2018-08-28T15:20:14.646Z,5.17
2018-08-28T15:22:42.770Z,5.17
2018-08-28T15:25:10.898Z,4.97
2018-08-28T15:27:39.068Z,5.27
2018-08-28T15:30:07.129Z,5.07
2018-08-28T15:32:35.430Z,6.50
2018-08-28T15:35:03.538Z,13.80
2018-08-28T15:37:31.651Z,6.40
2018-08-28T15:39:59.767Z,8.67
2018-08-28T15:42:27.870Z,6.87
2018-08-28T15:44:56.011Z,17.57
2018-08-28T15:47:24.135Z,9.23
2018-08-28T15:49:52.253Z,10.50
2018-08-28T15:52:20.378Z,7.50
2018-08-28T15:54:48.489Z,6.97
2018-08-28T15:57:16.699Z,5.93
2018-08-28T15:59:44.824Z,5.20
2018-08-28T16:02:12.957Z,5.63
2018-08-28T16:04:41.113Z,6.80
2018-08-28T16:07:09.219Z,6.20
2018-08-28T16:09:37.338Z,5.70
2018-08-28T16:12:05.452Z,5.30
2018-08-28T16:14:33.565Z,5.63
2018-08-28T16:17:01.718Z,7.00
2018-08-28T16:19:29.833Z,4.77
2018-08-28T16:21:59.662Z,5.67
2018-08-28T16:24:27.783Z,5.50
2018-08-28T16:26:55.955Z,5.43
2018-08-28T16:29:24.050Z,5.00
2018-08-28T16:31:52.375Z,5.47
2018-08-28T16:34:20.483Z,5.00
2018-08-28T16:36:48.664Z,6.10
2018-08-28T16:39:16.821Z,5.13
2018-08-28T16:41:44.930Z,4.80
2018-08-28T16:44:19.554Z,5.53
2018-08-28T16:46:47.675Z,5.00
2018-08-28T16:49:15.762Z,4.50
2018-08-28T16:51:43.973Z,5.20
2018-08-28T16:54:12.057Z,4.53
2018-08-28T16:56:40.170Z,5.10
2018-08-28T16:59:08.283Z,4.50
2018-08-28T17:01:36.455Z,4.73
2018-08-28T17:04:04.522Z,4.90
2018-08-28T17:06:32.635Z,5.10
2018-08-28T17:09:00.809Z,4.60
2018-08-28T17:11:28.908Z,5.07
2018-08-28T17:13:57.019Z,5.23
2018-08-28T17:16:25.156Z,4.23
2018-08-28T17:18:53.370Z,4.50
2018-08-28T17:21:21.490Z,4.17
2018-08-28T17:23:49.598Z,4.67
2018-08-28T17:26:17.711Z,4.90
2018-08-28T17:28:45.822Z,4.90
2018-08-28T17:31:13.967Z,4.87
2018-08-28T17:33:42.098Z,4.70
2018-08-28T17:36:10.205Z,5.27
2018-08-28T17:38:38.345Z,5.20
2018-08-28T17:41:06.494Z,5.03
2018-08-28T17:43:34.607Z,4.73
2018-08-28T17:46:02.730Z,4.90
2018-08-28T17:48:30.846Z,5.03
2018-08-28T17:50:58.978Z,4.60
2018-08-28T17:53:27.190Z,4.93
2018-08-28T17:55:55.282Z,5.57
2018-08-28T17:58:23.419Z,5.50
2018-08-28T18:00:51.534Z,5.20
2018-08-28T18:03:19.697Z,6.10
2018-08-28T18:05:47.877Z,6.10
2018-08-28T18:08:15.980Z,5.90
2018-08-28T18:10:44.170Z,5.80
2018-08-28T18:13:12.282Z,5.00
2018-08-28T18:15:40.437Z,5.73
2018-08-28T18:18:08.586Z,6.00
2018-08-28T18:20:36.702Z,6.13
2018-08-28T18:23:05.042Z,5.27
2018-08-28T18:25:33.183Z,6.50
2018-08-28T18:28:01.372Z,6.10
2018-08-28T18:30:29.475Z,6.50
2018-08-28T18:32:57.620Z,7.30
2018-08-28T18:35:25.755Z,6.63
2018-08-28T18:37:53.875Z,6.53
2018-08-28T18:40:22.057Z,6.97
2018-08-28T18:42:50.177Z,7.50
2018-08-28T18:45:18.402Z,8.40
2018-08-28T18:47:46.554Z,8.37
2018-08-28T18:50:14.682Z,8.37
2018-08-28T18:52:42.806Z,8.57
2018-08-28T18:55:10.927Z,7.80
2018-08-28T18:57:39.075Z,8.90
2018-08-28T19:00:08.112Z,8.83
2018-08-28T19:02:36.289Z,7.90
2018-08-28T19:05:04.367Z,8.90
2018-08-28T19:07:32.579Z,8.63
2018-08-28T19:10:00.654Z,8.90
2018-08-28T19:12:28.794Z,8.70
2018-08-28T19:14:56.910Z,9.00
2018-08-28T19:17:25.042Z,9.70
2018-08-28T19:19:53.182Z,9.80
2018-08-28T19:22:21.331Z,9.20
2018-08-28T19:24:49.446Z,9.63
2018-08-28T19:27:17.553Z,9.73
2018-08-28T19:29:45.670Z,9.77
2018-08-28T19:32:13.793Z,10.03
2018-08-28T19:34:41.913Z,11.07
2018-08-28T19:37:10.038Z,9.90
2018-08-28T19:39:38.161Z,9.43
2018-08-28T19:42:06.274Z,9.50
2018-08-28T19:44:34.392Z,10.17
2018-08-28T19:47:02.531Z,9.37
2018-08-28T19:49:30.694Z,10.17
2018-08-28T19:51:58.809Z,9.60
2018-08-28T19:54:26.927Z,9.53
2018-08-28T19:56:55.125Z,10.10
2018-08-28T19:59:23.182Z,10.47
2018-08-28T20:01:51.314Z,10.40
2018-08-28T20:04:19.511Z,10.43
2018-08-28T20:06:47.676Z,9.03
2018-08-28T20:09:15.775Z,9.90
2018-08-28T20:11:43.917Z,9.63
2018-08-28T20:14:12.015Z,10.07
2018-08-28T20:16:40.131Z,11.20
2018-08-28T20:19:08.263Z,10.60
2018-08-28T20:21:36.556Z,10.73
2018-08-28T20:24:05.022Z,10.80
2018-08-28T20:26:33.193Z,10.27
2018-08-28T20:29:01.395Z,10.00
2018-08-28T20:31:29.531Z,11.10
2018-08-28T20:33:57.695Z,11.30
2018-08-28T20:36:25.863Z,10.23
2018-08-28T20:38:53.993Z,11.30
2018-08-28T20:41:22.170Z,11.43
2018-08-28T20:43:50.309Z,10.77
2018-08-28T20:46:18.439Z,10.97
2018-08-28T20:48:48.286Z,10.40
2018-08-28T20:51:18.624Z,10.60
2018-08-28T20:53:54.750Z,11.27
2018-08-28T20:56:29.262Z,11.17
2018-08-28T20:59:10.223Z,11.17
2018-08-28T21:03:53.817Z,11.00
2018-08-28T21:06:31.126Z,10.07
2018-08-28T21:09:03.009Z,11.23
2018-08-28T21:11:44.685Z,11.60
2018-08-28T21:14:18.662Z,10.93
2018-08-28T21:16:52.443Z,10.30
2018-08-28T21:23:45.648Z,10.90
2018-08-28T21:26:13.797Z,10.90
2018-08-28T21:28:41.921Z,11.77
2018-08-28T21:31:10.093Z,11.90
2018-08-28T21:33:38.608Z,10.70
2018-08-28T21:36:06.723Z,12.07
2018-08-28T21:38:34.848Z,10.63
2018-08-28T21:41:03.769Z,11.77
2018-08-28T21:43:31.919Z,10.60
2018-08-28T21:46:00.031Z,11.57
2018-08-28T21:48:28.162Z,11.67
2018-08-28T21:50:56.563Z,12.50
2018-08-28T21:53:24.915Z,11.90
2018-08-28T21:55:53.029Z,10.67
2018-08-28T21:58:21.177Z,11.03
2018-08-28T22:01:22.946Z,12.03
2018-08-28T22:03:51.058Z,11.67
2018-08-28T22:06:24.564Z,11.90
2018-08-28T22:08:52.665Z,11.63
2018-08-28T22:11:20.791Z,11.43
2018-08-28T22:13:48.905Z,11.27
2018-08-28T22:16:17.102Z,11.33
2018-08-28T22:18:45.215Z,11.97
2018-08-28T22:21:13.313Z,12.30
2018-08-28T22:23:41.429Z,12.07
2018-08-28T22:26:09.537Z,11.73
2018-08-28T22:28:37.658Z,12.53
2018-08-28T22:31:05.830Z,11.83
2018-08-28T22:33:33.926Z,10.70
2018-08-28T22:36:02.215Z,11.60
2018-08-28T22:38:30.393Z,11.23
2018-08-28T22:40:58.508Z,11.73
2018-08-28T22:43:26.621Z,12.13
2018-08-28T22:45:54.729Z,11.93
2018-08-28T22:48:22.871Z,12.37
2018-08-28T22:50:50.986Z,11.80
2018-08-28T22:53:19.105Z,11.90
2018-08-28T22:55:47.209Z,13.80
2018-08-28T22:58:15.326Z,12.40
2018-08-28T23:00:43.446Z,12.13
2018-08-28T23:03:11.554Z,12.00
2018-08-28T23:05:39.705Z,13.17
2018-08-28T23:08:07.818Z,13.20
2018-08-28T23:10:35.937Z,12.60
2018-08-28T23:13:04.043Z,13.13
2018-08-28T23:15:32.190Z,12.70
2018-08-28T23:18:00.301Z,13.00
2018-08-28T23:20:28.418Z,13.30
2018-08-28T23:22:56.534Z,13.97
2018-08-28T23:25:24.679Z,12.83
2018-08-28T23:27:52.791Z,12.60
2018-08-28T23:30:20.914Z,13.40
2018-08-28T23:32:49.050Z,13.20
2018-08-28T23:35:17.264Z,13.73
2018-08-28T23:37:45.402Z,13.83
2018-08-28T23:40:13.522Z,13.57
2018-08-28T23:42:41.646Z,14.20
2018-08-28T23:45:09.761Z,14.03
2018-08-28T23:47:37.874Z,13.93
2018-08-28T23:50:06.056Z,14.03
2018-08-28T23:52:34.173Z,14.10
2018-08-28T23:55:02.818Z,13.90
2018-08-28T23:57:30.938Z,14.40
2018-08-28T23:59:59.050Z,14.30
